Time;durP1;ratioP1;P1;durP2;ratioP2;P2;SDS_P1;SDS_P2;PMS_P1;PMS_P2;Temp;Humidity;BMP_temperature;BMP_pressure;BME280_temperature;BME280_humidity;BME280_pressure;Samples;Min_cycle;Max_cycle;Signal;HPM_P1;HPM_P2
2023/05/20 00:00:29;;;;;;;13.32;7.47;;;11.00;99.90;;;;;;4940676;28;20038;-82
2023/05/20 00:02:56;;;;;;;13.75;6.78;;;11.00;99.90;;;;;;4940923;28;20039;-82
2023/05/20 00:05:22;;;;;;;13.27;7.00;;;11.00;99.90;;;;;;4941011;28;20043;-82
2023/05/20 00:07:48;;;;;;;14.82;7.00;;;11.00;99.90;;;;;;4940921;28;20573;-82
2023/05/20 00:10:14;;;;;;;12.95;7.40;;;11.00;99.90;;;;;;4924918;28;20126;-83
2023/05/20 00:12:40;;;;;;;13.73;6.82;;;11.00;99.90;;;;;;4972923;28;20061;-82
2023/05/20 00:15:06;;;;;;;15.68;7.30;;;10.90;99.90;;;;;;4912789;28;20038;-83
2023/05/20 00:17:32;;;;;;;14.52;7.43;;;10.90;99.90;;;;;;4976434;28;20047;-83
2023/05/20 00:19:58;;;;;;;11.30;6.95;;;11.00;99.90;;;;;;4944299;28;20375;-83
2023/05/20 00:22:25;;;;;;;12.98;7.00;;;10.80;99.90;;;;;;4944654;28;20047;-83
2023/05/20 00:24:50;;;;;;;13.43;6.82;;;10.90;99.90;;;;;;4976407;28;20131;-83
2023/05/20 00:27:16;;;;;;;12.95;6.55;;;10.90;99.90;;;;;;4976439;28;20125;-83
2023/05/20 00:29:42;;;;;;;12.27;6.35;;;10.90;99.90;;;;;;4944141;28;20042;-83
2023/05/20 00:32:08;;;;;;;11.52;7.18;;;10.90;99.90;;;;;;4976064;28;20074;-83
2023/05/20 00:34:34;;;;;;;14.02;7.50;;;10.90;99.90;;;;;;4975852;28;20062;-83
2023/05/20 00:37:00;;;;;;;15.00;7.05;;;10.90;99.90;;;;;;4943998;28;20042;-83
2023/05/20 00:39:26;;;;;;;14.75;7.65;;;10.80;99.90;;;;;;4976296;28;20483;-83
2023/05/20 00:41:51;;;;;;;13.10;7.45;;;10.80;99.90;;;;;;4976021;28;20096;-84
2023/05/20 00:44:17;;;;;;;14.65;7.18;;;10.80;99.90;;;;;;4975890;28;20046;-83
2023/05/20 00:46:44;;;;;;;12.63;7.28;;;10.80;99.90;;;;;;4975879;28;20054;-84
2023/05/20 00:49:10;;;;;;;12.98;7.20;;;10.80;99.90;;;;;;4912390;28;20153;-83
2023/05/20 00:51:36;;;;;;;14.43;7.38;;;10.80;99.90;;;;;;4975775;28;20072;-83
2023/05/20 00:54:02;;;;;;;13.80;7.40;;;10.80;99.90;;;;;;4975726;28;20053;-83
2023/05/20 00:56:28;;;;;;;15.15;7.07;;;10.80;99.90;;;;;;4976025;28;20077;-83
2023/05/20 00:58:55;;;;;;;14.15;7.20;;;10.80;99.90;;;;;;4975689;28;20035;-84
2023/05/20 01:01:21;;;;;;;16.10;7.13;;;10.80;99.90;;;;;;4959418;28;20042;-82
2023/05/20 01:03:47;;;;;;;10.70;6.78;;;10.80;99.90;;;;;;4927568;28;20073;-83
2023/05/20 01:06:13;;;;;;;11.98;6.80;;;10.70;99.90;;;;;;4975743;28;20561;-83
2023/05/20 01:08:39;;;;;;;11.05;6.80;;;10.80;99.90;;;;;;4959463;28;20043;-83
2023/05/20 01:11:12;;;;;;;19.52;7.07;;;10.70;99.90;;;;;;4959536;28;20492;-84
2023/05/20 01:13:46;;;;;;;12.80;6.68;;;10.80;99.90;;;;;;4959414;28;20510;-83
2023/05/20 01:16:13;;;;;;;13.35;7.32;;;10.80;99.90;;;;;;4959279;28;20047;-84
2023/05/20 01:18:42;;;;;;;10.30;6.30;;;10.80;99.90;;;;;;4959357;28;20049;-84
2023/05/20 01:21:12;;;;;;;14.23;6.75;;;10.80;99.90;;;;;;4959238;28;20039;-84
2023/05/20 01:23:40;;;;;;;10.43;6.30;;;10.80;99.90;;;;;;4959152;28;20046;-83
2023/05/20 01:26:06;;;;;;;12.23;6.60;;;10.80;99.90;;;;;;4958020;28;20039;-83
2023/05/20 01:28:37;;;;;;;14.02;6.45;;;10.90;99.90;;;;;;4959073;28;20039;-84
2023/05/20 01:31:06;;;;;;;13.18;6.00;;;10.90;99.90;;;;;;4959053;28;20094;-84
2023/05/20 01:33:34;;;;;;;13.18;6.30;;;10.90;99.90;;;;;;4958857;28;20165;-84
2023/05/20 01:36:00;;;;;;;11.88;6.45;;;10.90;99.90;;;;;;4927640;28;20487;-83
2023/05/20 01:38:26;;;;;;;11.07;6.13;;;10.90;99.90;;;;;;4958659;28;20034;-84
2023/05/20 01:40:54;;;;;;;10.77;6.20;;;10.90;99.90;;;;;;4975125;28;20122;-84
2023/05/20 01:43:21;;;;;;;9.70;5.80;;;10.90;99.90;;;;;;4974932;28;20050;-83
2023/05/20 01:45:47;;;;;;;12.50;6.05;;;11.00;99.90;;;;;;4974891;28;20076;-83
2023/05/20 01:48:13;;;;;;;11.40;5.88;;;11.00;99.90;;;;;;4942715;28;20046;-83
2023/05/20 01:50:39;;;;;;;10.45;5.88;;;10.90;99.90;;;;;;4974795;28;20082;-82
2023/05/20 01:53:08;;;;;;;11.77;5.90;;;11.00;99.90;;;;;;4942556;28;20089;-83
2023/05/20 01:55:34;;;;;;;10.38;5.88;;;10.90;99.90;;;;;;4942689;28;20039;-82
2023/05/20 01:58:00;;;;;;;11.82;5.80;;;11.00;99.90;;;;;;4942733;28;20046;-82
2023/05/20 02:00:26;;;;;;;10.70;5.75;;;11.00;99.90;;;;;;4942450;28;20074;-83
2023/05/20 02:02:52;;;;;;;12.82;5.47;;;11.00;99.90;;;;;;4974491;28;20079;-83
2023/05/20 02:05:17;;;;;;;8.88;5.72;;;11.20;99.90;;;;;;4942311;28;20042;-83
2023/05/20 02:07:43;;;;;;;10.98;5.40;;;11.00;99.90;;;;;;4926513;28;20506;-83
2023/05/20 02:10:09;;;;;;;11.20;5.70;;;10.90;99.90;;;;;;4974365;28;20565;-83
2023/05/20 02:12:35;;;;;;;9.60;5.70;;;11.00;99.90;;;;;;4942195;28;20069;-83
2023/05/20 02:15:01;;;;;;;11.40;5.90;;;11.00;99.90;;;;;;4942237;28;20039;-82
2023/05/20 02:17:27;;;;;;;11.35;5.80;;;11.00;99.90;;;;;;4974485;28;20483;-82
2023/05/20 02:19:53;;;;;;;10.93;5.30;;;11.00;99.90;;;;;;4974132;28;20046;-82
2023/05/20 02:22:19;;;;;;;10.80;5.20;;;11.00;99.90;;;;;;4974082;28;20259;-83
2023/05/20 02:24:45;;;;;;;10.23;5.78;;;11.00;99.90;;;;;;4941983;28;20054;-83
2023/05/20 02:27:11;;;;;;;11.75;5.40;;;10.90;99.90;;;;;;4941758;28;20053;-83
2023/05/20 02:29:37;;;;;;;9.82;5.50;;;11.00;99.90;;;;;;4974078;28;20372;-82
2023/05/20 02:32:03;;;;;;;11.20;5.55;;;10.90;99.90;;;;;;4973958;28;20054;-83
2023/05/20 02:34:30;;;;;;;11.23;5.70;;;10.90;99.90;;;;;;4973726;28;20066;-83
2023/05/20 02:36:56;;;;;;;9.50;5.18;;;10.90;99.90;;;;;;4973434;28;20074;-83
2023/05/20 02:39:22;;;;;;;11.50;5.63;;;11.00;99.90;;;;;;4926018;28;20407;-83
2023/05/20 02:41:47;;;;;;;10.35;5.28;;;10.90;99.90;;;;;;4941738;28;20046;-83
2023/05/20 02:44:13;;;;;;;9.77;5.15;;;10.90;99.90;;;;;;4973959;28;20133;-83
2023/05/20 02:46:39;;;;;;;10.02;5.30;;;10.90;99.90;;;;;;4973630;28;20053;-83
2023/05/20 02:49:05;;;;;;;10.23;5.47;;;10.90;99.90;;;;;;4973923;28;20039;-83
2023/05/20 02:51:32;;;;;;;11.38;5.60;;;10.90;99.90;;;;;;4925880;28;20046;-83
2023/05/20 02:53:58;;;;;;;11.25;5.43;;;10.80;99.90;;;;;;4973809;28;20050;-84
2023/05/20 02:56:23;;;;;;;11.98;5.38;;;10.80;99.90;;;;;;4941574;28;20494;-84
2023/05/20 02:58:49;;;;;;;9.55;5.07;;;10.80;99.90;;;;;;4941535;28;20078;-84
2023/05/20 03:01:15;;;;;;;8.82;5.07;;;10.80;99.90;;;;;;4941763;28;20043;-83
2023/05/20 03:03:41;;;;;;;10.27;5.07;;;10.70;99.90;;;;;;4950800;28;20058;-83
2023/05/20 03:06:07;;;;;;;10.00;5.03;;;10.80;99.90;;;;;;4933040;28;20086;-83
2023/05/20 03:08:33;;;;;;;9.90;5.15;;;10.70;99.90;;;;;;4981317;28;20049;-83
2023/05/20 03:10:59;;;;;;;10.43;5.18;;;10.70;99.90;;;;;;4981041;28;20047;-83
2023/05/20 03:13:25;;;;;;;9.32;5.25;;;10.80;99.90;;;;;;4976066;28;20046;-83
2023/05/20 03:15:52;;;;;;;11.40;5.00;;;10.70;99.90;;;;;;4974653;28;20038;-83
2023/05/20 03:18:17;;;;;;;10.20;4.97;;;10.70;99.90;;;;;;4974174;28;20039;-83
2023/05/20 03:20:43;;;;;;;10.63;4.90;;;10.70;99.90;;;;;;4973648;28;20130;-83
2023/05/20 03:23:09;;;;;;;8.98;4.82;;;10.70;99.90;;;;;;4941203;28;20043;-84
2023/05/20 03:25:36;;;;;;;9.68;5.20;;;10.70;99.90;;;;;;4941257;28;20126;-83
2023/05/20 03:28:02;;;;;;;11.27;4.53;;;10.70;99.90;;;;;;4973227;28;20082;-83
2023/05/20 03:30:28;;;;;;;11.07;4.88;;;10.70;99.90;;;;;;4941116;28;20052;-84
2023/05/20 03:32:57;;;;;;;10.25;4.78;;;10.70;99.90;;;;;;4940929;28;20051;-83
2023/05/20 03:35:23;;;;;;;8.85;4.60;;;10.70;99.90;;;;;;4973027;28;20057;-84
2023/05/20 03:37:50;;;;;;;8.90;4.60;;;10.70;99.90;;;;;;4940940;28;20039;-83
2023/05/20 03:40:16;;;;;;;9.07;4.60;;;10.70;99.90;;;;;;4972954;28;20074;-83
2023/05/20 03:42:42;;;;;;;10.30;4.65;;;10.60;99.90;;;;;;4925516;28;20129;-83
2023/05/20 03:45:08;;;;;;;9.52;4.63;;;10.60;99.90;;;;;;4972936;28;20062;-83
2023/05/20 03:47:34;;;;;;;8.88;4.32;;;10.60;99.90;;;;;;4973246;28;20046;-83
2023/05/20 03:50:00;;;;;;;10.95;4.65;;;10.60;99.90;;;;;;4944869;28;20510;-82
2023/05/20 03:52:25;;;;;;;8.00;4.38;;;10.60;99.90;;;;;;4977189;28;20046;-83
2023/05/20 03:54:52;;;;;;;9.02;4.70;;;10.50;99.90;;;;;;4976897;28;20034;-82
2023/05/20 03:57:18;;;;;;;8.73;4.40;;;10.50;99.90;;;;;;4944889;28;20047;-83
2023/05/20 03:59:44;;;;;;;9.63;4.57;;;10.50;99.90;;;;;;4944756;28;20045;-82
2023/05/20 04:02:10;;;;;;;8.63;4.22;;;10.40;99.90;;;;;;4976619;28;20035;-82
2023/05/20 04:04:36;;;;;;;9.77;3.92;;;10.40;99.90;;;;;;4944609;28;20078;-82
2023/05/20 04:07:04;;;;;;;8.80;3.80;;;10.40;99.90;;;;;;4944489;28;20513;-82
2023/05/20 04:09:30;;;;;;;7.35;3.90;;;10.40;99.90;;;;;;4976655;28;20046;-81
2023/05/20 04:11:56;;;;;;;8.93;3.50;;;10.40;99.90;;;;;;4976544;28;20078;-82
2023/05/20 04:14:22;;;;;;;10.13;4.10;;;10.40;99.90;;;;;;4928517;28;20121;-82
2023/05/20 04:16:49;;;;;;;8.73;4.05;;;10.40;99.90;;;;;;4976331;28;20556;-82
2023/05/20 04:19:27;;;;;;;9.02;4.05;;;10.40;99.90;;;;;;4944855;28;20050;-82
2023/05/20 04:21:53;;;;;;;7.93;3.90;;;10.40;99.90;;;;;;4930115;28;20043;-83
2023/05/20 04:24:23;;;;;;;9.25;4.10;;;10.30;99.90;;;;;;4976599;28;20121;-83
2023/05/20 04:26:50;;;;;;;7.65;3.85;;;10.30;99.90;;;;;;4944773;28;20051;-82
2023/05/20 04:29:17;;;;;;;7.25;3.67;;;10.30;99.90;;;;;;4944204;28;20043;-82
2023/05/20 04:31:46;;;;;;;8.70;3.72;;;10.30;99.90;;;;;;4944321;28;20053;-82
2023/05/20 04:34:13;;;;;;;8.32;3.60;;;10.30;99.90;;;;;;4944252;28;20066;-82
2023/05/20 04:36:44;;;;;;;7.45;3.45;;;10.30;99.90;;;;;;4943926;28;20057;-83
2023/05/20 04:39:10;;;;;;;7.32;3.80;;;10.30;99.90;;;;;;4976037;28;20053;-82
2023/05/20 04:41:36;;;;;;;7.53;3.78;;;10.40;99.90;;;;;;4975997;28;20506;-83
2023/05/20 04:44:02;;;;;;;6.80;3.22;;;10.40;99.90;;;;;;4944121;28;20058;-83
2023/05/20 04:46:28;;;;;;;8.48;3.67;;;10.40;99.90;;;;;;4944110;28;20047;-82
2023/05/20 04:48:54;;;;;;;7.28;3.10;;;10.50;99.90;;;;;;4976158;28;20039;-83
2023/05/20 04:51:20;;;;;;;7.68;3.40;;;10.50;99.90;;;;;;4943964;28;20109;-83
2023/05/20 04:53:46;;;;;;;9.77;3.53;;;10.60;99.90;;;;;;4975771;28;20043;-83
2023/05/20 04:56:12;;;;;;;7.65;2.97;;;10.70;99.90;;;;;;4975791;28;20039;-83
2023/05/20 04:58:38;;;;;;;8.23;3.30;;;10.80;99.90;;;;;;4975805;28;20042;-83
2023/05/20 05:01:05;;;;;;;7.35;3.17;;;10.80;99.90;;;;;;4928011;28;20030;-83
2023/05/20 05:03:31;;;;;;;7.07;3.05;;;11.00;99.90;;;;;;4942753;28;20051;-83
2023/05/20 05:05:57;;;;;;;5.50;2.72;;;11.30;99.90;;;;;;4976147;28;20043;-82
2023/05/20 05:08:24;;;;;;;6.13;2.70;;;11.40;99.90;;;;;;4975383;28;20043;-83
2023/05/20 05:10:50;;;;;;;5.57;2.92;;;11.90;99.90;;;;;;4975689;28;20054;-83
2023/05/20 05:13:18;;;;;;;6.85;2.78;;;12.20;99.90;;;;;;4975420;28;20047;-83
2023/05/20 05:15:44;;;;;;;6.50;2.50;;;12.50;99.90;;;;;;4943538;28;20045;-83
2023/05/20 05:18:10;;;;;;;5.60;2.30;;;12.50;99.90;;;;;;4943474;28;20035;-85
2023/05/20 05:20:38;;;;;;;5.60;2.40;;;12.50;99.90;;;;;;4943318;28;20035;-84
2023/05/20 05:23:04;;;;;;;5.88;2.30;;;12.60;99.90;;;;;;4975407;28;20043;-82
2023/05/20 05:25:30;;;;;;;4.93;2.10;;;13.50;99.90;;;;;;4927499;28;20421;-84
2023/05/20 05:27:56;;;;;;;6.50;2.10;;;13.10;99.90;;;;;;4943214;28;20047;-84
2023/05/20 05:30:22;;;;;;;6.00;2.10;;;13.50;99.90;;;;;;4974973;28;20042;-84
2023/05/20 05:32:47;;;;;;;5.95;2.40;;;13.70;99.90;;;;;;4975214;28;20085;-84
2023/05/20 05:35:13;;;;;;;5.07;2.20;;;13.70;99.90;;;;;;4958740;28;20113;-84
2023/05/20 05:37:39;;;;;;;5.63;2.00;;;14.50;99.90;;;;;;4943138;28;20047;-84
2023/05/20 05:40:09;;;;;;;5.97;2.28;;;14.80;99.90;;;;;;4974896;28;20038;-84
2023/05/20 05:42:35;;;;;;;5.25;2.20;;;15.20;99.90;;;;;;4958745;28;20047;-84
2023/05/20 05:45:01;;;;;;;4.80;1.95;;;15.80;99.90;;;;;;4959075;28;20042;-82
2023/05/20 05:47:31;;;;;;;5.20;2.00;;;15.50;98.70;;;;;;4975053;28;20045;-86
2023/05/20 05:49:57;;;;;;;4.75;1.90;;;15.40;99.00;;;;;;4975055;28;20049;-86
2023/05/20 05:52:23;;;;;;;7.78;2.05;;;15.40;99.40;;;;;;4942923;28;20518;-84
2023/05/20 05:54:49;;;;;;;7.03;2.20;;;15.50;97.50;;;;;;4911299;28;20078;-85
2023/05/20 05:57:15;;;;;;;4.30;1.95;;;15.10;98.30;;;;;;4974883;28;20130;-85
2023/05/20 05:59:40;;;;;;;5.72;1.80;;;15.30;98.80;;;;;;4974221;28;20058;-86
2023/05/20 06:02:06;;;;;;;6.47;2.25;;;15.80;97.20;;;;;;4974570;28;20043;-86
2023/05/20 06:04:35;;;;;;;5.72;1.95;;;16.30;96.60;;;;;;4926611;28;20380;-88
2023/05/20 06:07:01;;;;;;;5.70;2.15;;;15.90;94.50;;;;;;4942185;28;20042;-86
2023/05/20 06:09:26;;;;;;;5.00;2.00;;;16.40;94.90;;;;;;4911147;28;20215;-87
2023/05/20 06:11:54;;;;;;;5.95;2.15;;;16.60;92.50;;;;;;4926237;28;20082;-87
2023/05/20 06:14:20;;;;;;;4.57;2.00;;;16.80;93.80;;;;;;4942236;28;20045;-87
2023/05/20 06:16:46;;;;;;;4.80;2.05;;;16.50;93.70;;;;;;4942431;28;20034;-82
2023/05/20 06:19:12;;;;;;;6.38;2.20;;;16.30;92.00;;;;;;4942233;28;20050;-86
2023/05/20 06:21:37;;;;;;;6.80;2.15;;;16.20;92.30;;;;;;4926422;28;20038;-85
2023/05/20 06:24:09;;;;;;;5.32;2.05;;;16.30;94.60;;;;;;4973972;28;20038;-85
2023/05/20 06:26:35;;;;;;;;;;;16.90;93.00;;;;;;4974838;28;20086;-85
2023/05/20 06:29:02;;;;;;;5.45;2.00;;;16.80;93.80;;;;;;4926462;28;19964;-86
2023/05/20 06:31:28;;;;;;;6.03;2.13;;;17.20;93.20;;;;;;4942139;28;20129;-86
2023/05/20 06:33:54;;;;;;;5.72;2.20;;;17.70;91.90;;;;;;4973566;28;20109;-87
2023/05/20 06:40:08;;;;;;;6.03;2.38;;;18.00;91.10;;;;;;4975278;28;20038;-84
2023/05/20 06:50:01;;;;;;;5.25;2.00;;;18.30;89.10;;;;;;4974950;28;20038;-84
2023/05/20 07:26:58;;;;;;;5.07;2.38;;;19.80;75.90;;;;;;4972900;28;20054;-83
2023/05/20 07:29:23;;;;;;;5.72;2.25;;;19.50;77.10;;;;;;4941144;28;20038;-83
2023/05/20 07:31:49;;;;;;;5.88;2.50;;;19.30;77.50;;;;;;4957055;28;20046;-83
2023/05/20 07:34:15;;;;;;;5.60;2.40;;;19.40;79.70;;;;;;4940931;28;20565;-82
2023/05/20 07:36:42;;;;;;;5.32;2.33;;;19.60;77.60;;;;;;4925214;28;20049;-83
2023/05/20 07:39:11;;;;;;;5.57;2.45;;;20.00;76.70;;;;;;4925637;28;20039;-83
2023/05/20 07:41:37;;;;;;;5.15;2.50;;;19.80;76.60;;;;;;4941570;28;20502;-82
2023/05/20 07:44:10;;;;;;;6.68;2.90;;;19.20;76.20;;;;;;4925472;28;20505;-83
2023/05/20 07:51:46;;;;;;;5.90;2.70;;;19.30;80.90;;;;;;4953635;28;20055;-84
2023/05/20 07:54:14;;;;;;;5.50;2.60;;;19.70;78.80;;;;;;4906544;29;20047;-84
2023/05/20 07:56:40;;;;;;;7.65;2.50;;;19.50;75.80;;;;;;4905267;28;20039;-84
2023/05/20 07:59:08;;;;;;;5.25;2.50;;;19.70;77.50;;;;;;4937112;29;20481;-84
2023/05/20 08:01:34;;;;;;;6.90;2.55;;;19.40;78.70;;;;;;4906477;29;20409;-84
2023/05/20 08:03:59;;;;;;;5.07;2.38;;;19.40;78.40;;;;;;4905909;29;20043;-83
2023/05/20 08:06:25;;;;;;;5.88;2.50;;;19.50;78.50;;;;;;4937468;29;20039;-84
2023/05/20 08:08:54;;;;;;;6.70;2.42;;;19.90;79.10;;;;;;4906130;29;20406;-83
2023/05/20 08:11:21;;;;;;;4.65;2.22;;;19.60;76.70;;;;;;4907100;29;20047;-85
2023/05/20 08:13:47;;;;;;;6.03;2.58;;;19.70;76.50;;;;;;4906009;29;20050;-85
2023/05/20 08:16:13;;;;;;;6.35;2.33;;;19.40;78.10;;;;;;4921760;29;20043;-84
2023/05/20 08:18:39;;;;;;;5.80;2.70;;;19.60;78.10;;;;;;4906023;29;20039;-85
2023/05/20 08:21:09;;;;;;;6.78;2.38;;;19.50;79.00;;;;;;4950635;28;20039;-86
2023/05/20 08:23:35;;;;;;;6.28;2.50;;;19.60;76.90;;;;;;4891030;29;20047;-84
2023/05/20 08:26:02;;;;;;;7.38;2.70;;;19.50;80.00;;;;;;4937614;29;20500;-83
2023/05/20 08:28:29;;;;;;;6.38;2.50;;;19.80;76.30;;;;;;4937541;29;20509;-85
2023/05/20 08:31:00;;;;;;;5.53;2.50;;;20.00;77.00;;;;;;4906017;29;20047;-83
2023/05/20 08:33:29;;;;;;;5.50;2.25;;;20.20;76.80;;;;;;4906232;28;20046;-86
2023/05/20 08:35:54;;;;;;;6.32;2.33;;;20.30;76.70;;;;;;4909863;29;20475;-84
2023/05/20 08:38:21;;;;;;;5.78;2.60;;;20.30;74.40;;;;;;4940713;29;20046;-84
2023/05/20 08:40:55;;;;;;;7.68;2.33;;;20.50;76.30;;;;;;4924970;29;20039;-84
2023/05/20 08:43:21;;;;;;;6.43;2.60;;;20.40;74.10;;;;;;4956995;29;20526;-83
2023/05/20 08:45:48;;;;;;;5.95;2.60;;;20.50;73.80;;;;;;4924795;29;20039;-84
2023/05/20 08:48:16;;;;;;;7.15;2.50;;;20.70;73.70;;;;;;4924817;29;20054;-83
2023/05/20 08:50:47;;;;;;;6.35;2.40;;;20.70;72.70;;;;;;4924653;29;20066;-83
2023/05/20 08:53:13;;;;;;;8.50;2.80;;;20.40;73.50;;;;;;4940626;29;20521;-83
2023/05/20 08:55:45;;;;;;;7.10;2.50;;;20.50;70.00;;;;;;4925101;29;20497;-82
2023/05/20 08:58:14;;;;;;;5.13;2.45;;;20.30;70.40;;;;;;4940628;29;20506;-82
2023/05/20 09:00:40;;;;;;;6.18;2.20;;;20.30;69.70;;;;;;4956645;29;20083;-82
2023/05/20 09:03:06;;;;;;;5.65;2.50;;;20.30;71.40;;;;;;4924806;29;20122;-83
2023/05/20 09:05:33;;;;;;;5.38;2.30;;;20.60;73.50;;;;;;4908843;29;20126;-82
2023/05/20 09:08:11;;;;;;;5.75;2.40;;;20.30;74.40;;;;;;4908698;29;20127;-82
2023/05/20 09:10:38;;;;;;;5.30;2.60;;;20.60;71.70;;;;;;4908821;29;20071;-83
2023/05/20 09:13:05;;;;;;;6.80;2.60;;;20.70;71.90;;;;;;4924480;29;20043;-83
2023/05/20 09:15:35;;;;;;;6.30;2.53;;;19.60;71.20;;;;;;4924591;29;20130;-82
2023/05/20 09:18:03;;;;;;;4.70;2.50;;;19.90;73.90;;;;;;4908657;29;20040;-79
2023/05/20 09:20:30;;;;;;;6.25;2.30;;;20.10;73.20;;;;;;4893143;29;20051;-82
2023/05/20 09:23:05;;;;;;;5.32;2.30;;;20.40;74.00;;;;;;4924390;29;20479;-82
2023/05/20 09:25:31;;;;;;;5.88;2.13;;;20.50;72.50;;;;;;4955889;29;20051;-83
2023/05/20 09:27:57;;;;;;;5.43;2.45;;;20.80;69.80;;;;;;4924093;29;20043;-83
2023/05/20 09:30:23;;;;;;;8.00;2.50;;;20.90;72.50;;;;;;4908263;29;20054;-83
2023/05/20 09:32:57;;;;;;;5.82;2.03;;;21.20;65.40;;;;;;4908439;29;20133;-82
2023/05/20 09:35:23;;;;;;;6.20;2.40;;;21.10;66.50;;;;;;4939730;29;20082;-82
2023/05/20 09:37:54;;;;;;;6.10;2.00;;;21.00;66.60;;;;;;4908258;29;20043;-82
2023/05/20 09:40:27;;;;;;;5.07;2.25;;;21.20;68.00;;;;;;4908170;29;20075;-81
2023/05/20 09:42:55;;;;;;;8.43;2.10;;;21.50;67.70;;;;;;4924047;29;20139;-82
2023/05/20 09:45:21;;;;;;;4.70;2.22;;;21.60;64.70;;;;;;4954857;28;20047;-82
2023/05/20 09:47:53;;;;;;;6.43;2.55;;;21.50;63.80;;;;;;4908054;29;20051;-81
2023/05/20 09:50:20;;;;;;;5.85;2.40;;;20.90;63.00;;;;;;4939640;29;20051;-82
2023/05/20 09:52:51;;;;;;;6.80;2.33;;;20.40;66.60;;;;;;4955406;29;20043;-82
2023/05/20 09:55:18;;;;;;;6.22;2.30;;;20.40;66.30;;;;;;4939351;29;20553;-81
2023/05/20 09:57:45;;;;;;;5.25;2.25;;;20.30;65.00;;;;;;4955423;29;20182;-80
2023/05/20 10:00:16;;;;;;;5.82;2.42;;;20.00;68.10;;;;;;4923738;29;20031;-82
2023/05/20 10:02:47;;;;;;;5.80;2.40;;;19.90;67.20;;;;;;4923492;29;20126;-82
2023/05/20 10:05:40;;;;;;;4.55;2.17;;;20.00;68.20;;;;;;4955525;29;20593;-80
2023/05/20 10:08:39;;;;;;;4.75;2.20;;;19.80;66.10;;;;;;4920712;29;20560;-82
2023/05/20 10:11:29;;;;;;;5.03;2.15;;;19.70;69.30;;;;;;4955100;29;20050;-81
2023/05/20 10:13:58;;;;;;;5.32;2.30;;;20.30;69.70;;;;;;4923202;29;20063;-82
2023/05/20 10:16:40;;;;;;;5.57;2.30;;;20.20;68.40;;;;;;4923426;29;20078;-82
2023/05/20 10:19:28;;;;;;;5.82;2.40;;;20.00;67.50;;;;;;4954956;29;20177;-82
2023/05/20 10:22:03;;;;;;;6.28;2.30;;;19.70;68.70;;;;;;4955139;29;20045;-81
2023/05/20 10:24:31;;;;;;;5.32;2.13;;;19.90;69.10;;;;;;4955176;29;20467;-84
2023/05/20 10:27:00;;;;;;;5.63;2.13;;;20.20;68.30;;;;;;4923097;29;20063;-83
2023/05/20 10:29:26;;;;;;;6.32;2.20;;;20.50;66.40;;;;;;4954978;29;20054;-81
2023/05/20 10:31:52;;;;;;;6.88;2.40;;;20.80;66.20;;;;;;4954624;29;20046;-81
2023/05/20 10:34:19;;;;;;;5.82;2.17;;;21.00;66.60;;;;;;4922755;29;20081;-82
2023/05/20 10:36:54;;;;;;;7.85;2.20;;;21.20;67.20;;;;;;4922993;29;20597;-81
2023/05/20 10:39:28;;;;;;;6.63;2.20;;;21.40;63.90;;;;;;4922935;29;20043;-82
2023/05/20 10:42:07;;;;;;;5.18;2.03;;;20.80;66.20;;;;;;4922707;29;20051;-82
2023/05/20 10:44:44;;;;;;;5.85;2.15;;;21.20;62.60;;;;;;4954883;29;20689;-83
2023/05/20 10:47:10;;;;;;;7.53;2.08;;;21.30;64.90;;;;;;4938798;29;20514;-83
2023/05/20 10:49:46;;;;;;;5.85;2.30;;;21.50;64.00;;;;;;4907344;29;20046;-81
2023/05/20 10:52:19;;;;;;;7.72;2.38;;;21.10;61.10;;;;;;4935596;29;20101;-82
2023/05/20 10:54:58;;;;;;;6.25;2.17;;;20.70;62.30;;;;;;4936407;29;20048;-84
2023/05/20 10:57:26;;;;;;;4.47;1.77;;;21.10;64.50;;;;;;4935983;29;20102;-84
2023/05/20 10:59:52;;;;;;;5.25;2.00;;;21.40;63.00;;;;;;4935602;29;20046;-83
2023/05/20 11:02:21;;;;;;;5.53;2.15;;;21.60;60.50;;;;;;4903802;29;20046;-83
2023/05/20 11:04:48;;;;;;;6.63;2.20;;;21.50;61.20;;;;;;4904508;29;20537;-83
2023/05/20 11:07:25;;;;;;;5.30;2.03;;;21.30;61.30;;;;;;4935594;29;20047;-83
2023/05/20 11:09:51;;;;;;;6.72;2.00;;;21.70;60.80;;;;;;4903771;29;20524;-83
2023/05/20 11:12:17;;;;;;;6.18;2.30;;;21.90;60.10;;;;;;4903424;29;20138;-82
2023/05/20 11:14:42;;;;;;;5.63;2.10;;;21.70;61.60;;;;;;4902949;29;20055;-83
2023/05/20 11:17:08;;;;;;;6.13;2.30;;;21.70;57.20;;;;;;4903487;29;20036;-83
2023/05/20 11:19:37;;;;;;;6.15;1.98;;;21.20;57.70;;;;;;4903839;29;20083;-86
2023/05/20 11:22:02;;;;;;;6.85;2.10;;;21.40;58.30;;;;;;4935020;29;20047;-85
2023/05/20 11:24:28;;;;;;;8.05;2.03;;;21.10;59.70;;;;;;4935218;29;20487;-84
2023/05/20 11:27:00;;;;;;;6.53;2.10;;;20.80;60.00;;;;;;4903125;29;20059;-85
2023/05/20 11:29:27;;;;;;;6.90;2.30;;;21.00;60.70;;;;;;4934940;29;20513;-84
2023/05/20 11:31:55;;;;;;;5.68;2.30;;;21.00;60.70;;;;;;4934797;29;20102;-81
2023/05/20 11:34:21;;;;;;;5.15;1.98;;;21.00;59.90;;;;;;4903254;29;20043;-82
2023/05/20 11:36:51;;;;;;;5.68;2.13;;;21.40;60.10;;;;;;4918907;29;20095;-85
2023/05/20 11:39:16;;;;;;;6.65;2.08;;;21.50;61.70;;;;;;4902947;29;20123;-83
2023/05/20 11:41:42;;;;;;;5.68;2.15;;;21.50;57.60;;;;;;4903215;29;20123;-84
2023/05/20 11:44:12;;;;;;;6.32;2.40;;;21.20;58.70;;;;;;4934552;29;20102;-82
2023/05/20 11:46:45;;;;;;;7.60;2.22;;;21.10;60.30;;;;;;4902914;29;20044;-83
2023/05/20 11:49:16;;;;;;;6.18;2.10;;;20.80;60.90;;;;;;4934827;29;20402;-83
2023/05/20 11:51:43;;;;;;;6.30;2.13;;;20.30;63.20;;;;;;4935143;29;20143;-84
2023/05/20 11:54:09;;;;;;;7.97;2.30;;;20.20;63.10;;;;;;4921951;29;20403;-83
2023/05/20 11:56:41;;;;;;;6.10;2.17;;;20.50;64.00;;;;;;4921799;29;20074;-83
2023/05/20 11:59:09;;;;;;;6.38;2.25;;;20.50;62.20;;;;;;4906607;29;20505;-85
2023/05/20 12:01:39;;;;;;;5.78;2.05;;;20.30;62.90;;;;;;4922051;29;20423;-84
2023/05/20 12:04:06;;;;;;;5.90;2.20;;;20.30;64.70;;;;;;4953560;29;20047;-83
2023/05/20 12:06:32;;;;;;;6.93;2.17;;;20.50;64.70;;;;;;4953056;29;20047;-84
2023/05/20 12:09:05;;;;;;;5.57;2.40;;;20.30;64.00;;;;;;4906938;29;20054;-85
2023/05/20 12:11:35;;;;;;;5.78;2.17;;;20.20;63.50;;;;;;4925528;29;20047;-84
2023/05/20 12:14:04;;;;;;;5.50;2.20;;;20.20;64.30;;;;;;4957357;29;20546;-84
2023/05/20 12:16:32;;;;;;;6.35;2.00;;;20.40;65.10;;;;;;4941262;29;20043;-85
2023/05/20 12:18:58;;;;;;;5.07;2.10;;;20.20;64.50;;;;;;4957408;29;20487;-84
2023/05/20 12:21:24;;;;;;;5.70;2.00;;;20.30;64.00;;;;;;4925356;29;20177;-83
2023/05/20 12:23:56;;;;;;;7.18;2.10;;;20.70;64.10;;;;;;4909647;29;20053;-85
2023/05/20 12:26:25;;;;;;;5.32;1.83;;;20.60;61.00;;;;;;4925231;29;20050;-85
2023/05/20 12:28:52;;;;;;;7.40;1.90;;;20.80;62.10;;;;;;4957306;29;20149;-84
2023/05/20 12:31:18;;;;;;;5.30;2.22;;;20.70;59.80;;;;;;4956908;29;20102;-83
2023/05/20 12:33:45;;;;;;;5.63;1.80;;;20.30;60.10;;;;;;4956815;29;20055;-84
2023/05/20 12:36:11;;;;;;;9.10;2.00;;;20.40;61.90;;;;;;4924864;29;20039;-86
2023/05/20 12:38:37;;;;;;;4.93;2.03;;;20.50;61.50;;;;;;4918625;29;20048;-85
2023/05/20 12:41:03;;;;;;;6.00;2.10;;;20.70;62.50;;;;;;4887510;29;20040;-84
2023/05/20 12:43:29;;;;;;;5.90;2.00;;;21.10;61.50;;;;;;4918591;29;20044;-84
2023/05/20 12:45:55;;;;;;;8.18;2.40;;;21.20;60.70;;;;;;4903155;29;20044;-84
2023/05/20 12:48:20;;;;;;;8.65;2.10;;;21.40;60.00;;;;;;4918830;29;20087;-84
2023/05/20 12:50:46;;;;;;;6.25;2.28;;;21.40;60.90;;;;;;4927486;29;20055;-85
2023/05/20 12:53:12;;;;;;;6.32;2.20;;;21.60;60.90;;;;;;4937516;29;20044;-83
2023/05/20 12:55:39;;;;;;;4.55;2.00;;;21.40;59.40;;;;;;4937505;29;20069;-82
2023/05/20 12:58:07;;;;;;;6.03;1.90;;;21.20;58.40;;;;;;4905991;29;20047;-86
2023/05/20 13:00:33;;;;;;;8.13;2.17;;;20.90;59.00;;;;;;4906280;29;20047;-86
2023/05/20 13:02:59;;;;;;;4.53;1.80;;;20.90;60.10;;;;;;4905742;29;20118;-86
2023/05/20 13:05:25;;;;;;;5.15;1.80;;;20.90;60.20;;;;;;4937160;29;20179;-85
2023/05/20 13:07:51;;;;;;;7.78;2.08;;;21.20;61.00;;;;;;4951028;29;20047;-85
2023/05/20 13:10:18;;;;;;;6.35;2.00;;;21.40;61.20;;;;;;4909138;29;20043;-85
2023/05/20 13:12:45;;;;;;;6.18;1.90;;;21.70;58.50;;;;;;4956624;29;20054;-85
2023/05/20 13:15:14;;;;;;;5.07;1.90;;;21.30;59.00;;;;;;4957195;29;20070;-81
2023/05/20 13:17:41;;;;;;;5.13;1.92;;;21.30;58.60;;;;;;4926679;29;20044;-84
2023/05/20 13:20:08;;;;;;;4.88;2.10;;;21.40;60.00;;;;;;4925607;29;20042;-86
2023/05/20 13:22:34;;;;;;;8.45;2.20;;;21.70;57.80;;;;;;4957095;29;20498;-84
2023/05/20 13:25:00;;;;;;;7.38;2.20;;;21.70;56.00;;;;;;4909332;29;20043;-85
2023/05/20 13:27:26;;;;;;;6.43;1.90;;;21.10;58.60;;;;;;4956210;29;20043;-85
2023/05/20 13:29:52;;;;;;;6.18;2.10;;;20.90;58.70;;;;;;4940218;29;20558;-85
2023/05/20 13:32:18;;;;;;;5.40;2.08;;;20.90;60.10;;;;;;4956313;29;20137;-85
2023/05/20 13:34:44;;;;;;;6.07;2.00;;;21.00;59.00;;;;;;4955893;29;20043;-84
2023/05/20 13:37:10;;;;;;;6.00;2.13;;;21.00;60.20;;;;;;4924217;29;20035;-84